sensor_id;sensor_type;location;lat;lon;timestamp;pressure;altitude;pressure_sealevel;temperature;humidity
44531;BME280;30240;47.418;0.700;2023-02-02T00:01:14;102001.708984375;;;6.87;85.73
44531;BME280;30240;47.418;0.700;2023-02-02T00:03:39;101998.74877929688;;;6.85;85.9
44531;BME280;30240;47.418;0.700;2023-02-02T00:06:04;101992.95043945312;;;6.85;85.77
44531;BME280;30240;47.418;0.700;2023-02-02T00:08:29;101991.064453125;;;6.88;85.79
44531;BME280;30240;47.418;0.700;2023-02-02T00:10:53;101991.064453125;;;6.88;85.79
44531;BME280;30240;47.418;0.700;2023-02-02T00:13:19;101983.75244140625;;;6.91;85.96
44531;BME280;30240;47.418;0.700;2023-02-02T00:15:44;101989.7216796875;;;6.91;85.76
44531;BME280;30240;47.418;0.700;2023-02-02T00:18:08;101983.00170898438;;;7.02;85.82
44531;BME280;30240;47.418;0.700;2023-02-02T00:20:33;101982.48291015625;;;6.96;85.82
44531;BME280;30240;47.418;0.700;2023-02-02T00:22:59;101982.48291015625;;;6.96;85.82
44531;BME280;30240;47.418;0.700;2023-02-02T00:25:23;101982.87353515625;;;6.99;86.17
44531;BME280;30240;47.418;0.700;2023-02-02T00:27:49;101981.3232421875;;;6.97;85.87
44531;BME280;30240;47.418;0.700;2023-02-02T00:30:14;101986.52954101562;;;6.97;85.9
44531;BME280;30240;47.418;0.700;2023-02-02T00:32:38;101993.60961914062;;;6.99;86.17
44531;BME280;30240;47.418;0.700;2023-02-02T00:35:04;101993.60961914062;;;6.99;86.17
44531;BME280;30240;47.418;0.700;2023-02-02T00:37:28;101989.09301757812;;;7.03;85.89
44531;BME280;30240;47.418;0.700;2023-02-02T00:39:53;101983.01391601562;;;6.95;86.14
44531;BME280;30240;47.418;0.700;2023-02-02T00:42:18;101983.18481445312;;;6.93;86.15
44531;BME280;30240;47.418;0.700;2023-02-02T00:44:43;101970.97778320312;;;6.89;86.17
44531;BME280;30240;47.418;0.700;2023-02-02T00:47:09;101967.93823242188;;;6.89;86.27
44531;BME280;30240;47.418;0.700;2023-02-02T00:49:34;101967.93823242188;;;6.89;86.27
44531;BME280;30240;47.418;0.700;2023-02-02T00:51:58;101974.84130859375;;;6.92;86.28
44531;BME280;30240;47.418;0.700;2023-02-02T00:54:23;101981.43920898438;;;6.96;86.48
44531;BME280;30240;47.418;0.700;2023-02-02T00:56:48;101976.123046875;;;6.97;86.19
44531;BME280;30240;47.418;0.700;2023-02-02T00:59:13;101979.2236328125;;;6.89;86.42
44531;BME280;30240;47.418;0.700;2023-02-02T01:01:39;101979.2236328125;;;6.89;86.42
44531;BME280;30240;47.418;0.700;2023-02-02T01:04:04;101983.3984375;;;6.85;86.48
44531;BME280;30240;47.418;0.700;2023-02-02T01:06:29;101977.734375;;;6.91;86.52
44531;BME280;30240;47.418;0.700;2023-02-02T01:08:54;101983.67309570312;;;6.89;86.53
44531;BME280;30240;47.418;0.700;2023-02-02T01:11:19;101986.328125;;;6.88;86.6
44531;BME280;30240;47.418;0.700;2023-02-02T01:13:44;101986.328125;;;6.88;86.6
44531;BME280;30240;47.418;0.700;2023-02-02T01:16:09;101983.04443359375;;;6.92;86.5
44531;BME280;30240;47.418;0.700;2023-02-02T01:18:33;101981.01806640625;;;6.99;86.45
44531;BME280;30240;47.418;0.700;2023-02-02T01:21:00;101985.0830078125;;;6.95;86.43
44531;BME280;30240;47.418;0.700;2023-02-02T01:23:24;101988.39111328125;;;6.97;86.7
44531;BME280;30240;47.418;0.700;2023-02-02T01:25:52;101988.39111328125;;;6.97;86.7
44531;BME280;30240;47.418;0.700;2023-02-02T01:28:14;101990.8447265625;;;7.02;86.75
44531;BME280;30240;47.418;0.700;2023-02-02T01:30:38;101991.21704101562;;;6.95;86.6
44531;BME280;30240;47.418;0.700;2023-02-02T01:33:03;101991.5283203125;;;6.93;86.86
44531;BME280;30240;47.418;0.700;2023-02-02T01:35:28;101991.9189453125;;;6.92;86.83
44531;BME280;30240;47.418;0.700;2023-02-02T01:37:53;101991.9189453125;;;6.92;86.83
44531;BME280;30240;47.418;0.700;2023-02-02T01:40:18;101992.19360351562;;;6.89;86.94
44531;BME280;30240;47.418;0.700;2023-02-02T01:42:43;101996.03271484375;;;6.92;86.73
44531;BME280;30240;47.418;0.700;2023-02-02T01:45:16;101986.63940429688;;;6.96;86.96
44531;BME280;30240;47.418;0.700;2023-02-02T01:47:37;101983.29467773438;;;6.91;87.11
44531;BME280;30240;47.418;0.700;2023-02-02T01:49:59;101983.29467773438;;;6.91;87.11
44531;BME280;30240;47.418;0.700;2023-02-02T01:52:26;101986.083984375;;;6.88;87.16
44531;BME280;30240;47.418;0.700;2023-02-02T01:54:51;101980.419921875;;;6.92;87.02
44531;BME280;30240;47.418;0.700;2023-02-02T01:57:16;101978.17993164062;;;6.84;87.21
44531;BME280;30240;47.418;0.700;2023-02-02T01:59:40;101978.03955078125;;;6.85;87.41
44531;BME280;30240;47.418;0.700;2023-02-02T02:02:04;101978.03955078125;;;6.85;87.41
44531;BME280;30240;47.418;0.700;2023-02-02T02:04:29;101980.87768554688;;;6.88;87.37
44531;BME280;30240;47.418;0.700;2023-02-02T02:06:54;101975.3173828125;;;6.89;87.38
44531;BME280;30240;47.418;0.700;2023-02-02T02:09:19;101969.07958984375;;;6.87;87.33
44531;BME280;30240;47.418;0.700;2023-02-02T02:11:44;101968.65844726562;;;6.89;87.6
44531;BME280;30240;47.418;0.700;2023-02-02T02:14:10;101968.65844726562;;;6.89;87.6
44531;BME280;30240;47.418;0.700;2023-02-02T02:16:41;101969.94018554688;;;6.97;87.43
44531;BME280;30240;47.418;0.700;2023-02-02T02:16:47;101969.94018554688;;;6.97;87.43
44531;BME280;30240;47.418;0.700;2023-02-02T02:19:18;101975.87280273438;;;6.89;87.59
44531;BME280;30240;47.418;0.700;2023-02-02T02:19:29;101975.87280273438;;;6.89;87.59
44531;BME280;30240;47.418;0.700;2023-02-02T02:19:38;101975.87280273438;;;6.89;87.59
44531;BME280;30240;47.418;0.700;2023-02-02T02:19:55;101975.87280273438;;;6.89;87.59
44531;BME280;30240;47.418;0.700;2023-02-02T02:21:27;101971.45385742188;;;6.92;87.62
44531;BME280;30240;47.418;0.700;2023-02-02T02:25:00;101961.376953125;;;6.84;87.6
44531;BME280;30240;47.418;0.700;2023-02-02T02:26:36;101961.26708984375;;;6.87;87.72
44531;BME280;30240;47.418;0.700;2023-02-02T02:26:53;101961.26708984375;;;6.87;87.72
44531;BME280;30240;47.418;0.700;2023-02-02T02:28:55;101961.26708984375;;;6.87;87.72
44531;BME280;30240;47.418;0.700;2023-02-02T02:29:03;101961.26708984375;;;6.87;87.72
44531;BME280;30240;47.418;0.700;2023-02-02T02:32:04;101957.67822265625;;;6.97;87.66
44531;BME280;30240;47.418;0.700;2023-02-02T02:33:31;101955.126953125;;;6.97;87.97
44531;BME280;30240;47.418;0.700;2023-02-02T02:35:59;101953.60717773438;;;6.91;87.78
44531;BME280;30240;47.418;0.700;2023-02-02T02:38:23;101951.8798828125;;;6.92;87.87
44531;BME280;30240;47.418;0.700;2023-02-02T02:40:46;101951.8798828125;;;6.92;87.87
44531;BME280;30240;47.418;0.700;2023-02-02T02:43:12;101947.4365234375;;;6.91;87.74
44531;BME280;30240;47.418;0.700;2023-02-02T02:45:34;101941.70532226562;;;6.85;87.99
44531;BME280;30240;47.418;0.700;2023-02-02T02:47:59;101940.64331054688;;;6.88;87.97
44531;BME280;30240;47.418;0.700;2023-02-02T02:50:24;101943.64013671875;;;6.88;88.07
44531;BME280;30240;47.418;0.700;2023-02-02T02:52:55;101943.64013671875;;;6.88;88.07
44531;BME280;30240;47.418;0.700;2023-02-02T02:55:14;101941.88232421875;;;6.95;87.91
44531;BME280;30240;47.418;0.700;2023-02-02T02:57:45;101939.39819335938;;;6.93;88.33
44531;BME280;30240;47.418;0.700;2023-02-02T02:57:52;101939.39819335938;;;6.93;88.33
44531;BME280;30240;47.418;0.700;2023-02-02T03:00:17;101929.52880859375;;;6.88;88.01
44531;BME280;30240;47.418;0.700;2023-02-02T03:02:34;101928.81469726562;;;6.89;88.07
44531;BME280;30240;47.418;0.700;2023-02-02T03:02:41;101928.81469726562;;;6.89;88.07
44531;BME280;30240;47.418;0.700;2023-02-02T03:02:45;101928.81469726562;;;6.89;88.07
44531;BME280;30240;47.418;0.700;2023-02-02T03:04:59;101928.81469726562;;;6.89;88.07
44531;BME280;30240;47.418;0.700;2023-02-02T03:07:22;101933.740234375;;;6.87;87.82
44531;BME280;30240;47.418;0.700;2023-02-02T03:09:45;101937.57934570312;;;6.79;88.11
44531;BME280;30240;47.418;0.700;2023-02-02T03:12:09;101939.81323242188;;;6.87;88.1
44531;BME280;30240;47.418;0.700;2023-02-02T03:14:34;101927.01416015625;;;6.82;88.07
44531;BME280;30240;47.418;0.700;2023-02-02T03:16:58;101927.01416015625;;;6.82;88.07
44531;BME280;30240;47.418;0.700;2023-02-02T03:24:14;101916.00952148438;;;6.81;87.99
44531;BME280;30240;47.418;0.700;2023-02-02T03:26:39;101919.11010742188;;;6.87;87.63
44531;BME280;30240;47.418;0.700;2023-02-02T03:29:03;101919.11010742188;;;6.87;87.63
44531;BME280;30240;47.418;0.700;2023-02-02T03:31:29;101921.1181640625;;;6.89;87.68
44531;BME280;30240;47.418;0.700;2023-02-02T03:33:53;101929.35791015625;;;6.89;87.32
44531;BME280;30240;47.418;0.700;2023-02-02T03:36:18;101934.53369140625;;;6.89;87.36
44531;BME280;30240;47.418;0.700;2023-02-02T03:38:44;101935.2294921875;;;6.99;86.83
44531;BME280;30240;47.418;0.700;2023-02-02T03:41:09;101935.2294921875;;;6.99;86.83
44531;BME280;30240;47.418;0.700;2023-02-02T03:43:33;101939.75219726562;;;7.0;87.13
44531;BME280;30240;47.418;0.700;2023-02-02T03:46:00;101942.43774414062;;;7.02;86.79
44531;BME280;30240;47.418;0.700;2023-02-02T03:48:24;101934.71069335938;;;7.0;86.61
44531;BME280;30240;47.418;0.700;2023-02-02T03:50:49;101942.95043945312;;;7.03;86.98
44531;BME280;30240;47.418;0.700;2023-02-02T03:53:13;101941.26586914062;;;7.02;86.73
44531;BME280;30240;47.418;0.700;2023-02-02T03:55:39;101941.26586914062;;;7.02;86.73
44531;BME280;30240;47.418;0.700;2023-02-02T03:58:04;101950.47607421875;;;6.97;86.67
44531;BME280;30240;47.418;0.700;2023-02-02T04:00:28;101951.40380859375;;;7.02;86.91
44531;BME280;30240;47.418;0.700;2023-02-02T04:02:53;101949.40795898438;;;7.0;86.65
44531;BME280;30240;47.418;0.700;2023-02-02T04:05:18;101953.54614257812;;;7.02;86.67
44531;BME280;30240;47.418;0.700;2023-02-02T04:07:44;101953.54614257812;;;7.02;86.67
44531;BME280;30240;47.418;0.700;2023-02-02T04:10:09;101949.951171875;;;7.0;86.75
44531;BME280;30240;47.418;0.700;2023-02-02T04:12:33;101957.58056640625;;;7.02;86.64
44531;BME280;30240;47.418;0.700;2023-02-02T04:14:58;101959.57641601562;;;7.0;86.7
44531;BME280;30240;47.418;0.700;2023-02-02T04:17:23;101963.134765625;;;7.02;86.47
44531;BME280;30240;47.418;0.700;2023-02-02T04:19:48;101963.134765625;;;7.02;86.47
44531;BME280;30240;47.418;0.700;2023-02-02T04:22:14;101961.0595703125;;;6.99;86.75
44531;BME280;30240;47.418;0.700;2023-02-02T04:24:39;101967.85888671875;;;7.02;86.32
44531;BME280;30240;47.418;0.700;2023-02-02T04:27:03;101971.9970703125;;;6.96;86.34
44531;BME280;30240;47.418;0.700;2023-02-02T04:29:28;101973.62670898438;;;6.97;86.27
44531;BME280;30240;47.418;0.700;2023-02-02T04:31:53;101973.62670898438;;;6.97;86.27
44531;BME280;30240;47.418;0.700;2023-02-02T04:34:19;101978.00903320312;;;7.0;86.36
44531;BME280;30240;47.418;0.700;2023-02-02T04:36:44;101974.31030273438;;;7.0;86.36
44531;BME280;30240;47.418;0.700;2023-02-02T04:39:09;101975.76293945312;;;6.97;86.48
44531;BME280;30240;47.418;0.700;2023-02-02T04:41:33;101975.52490234375;;;6.97;86.33
44531;BME280;30240;47.418;0.700;2023-02-02T04:43:59;101975.52490234375;;;6.97;86.33
44531;BME280;30240;47.418;0.700;2023-02-02T04:46:23;101977.00805664062;;;7.03;86.43
44531;BME280;30240;47.418;0.700;2023-02-02T04:48:48;101986.4990234375;;;7.07;86.55
44531;BME280;30240;47.418;0.700;2023-02-02T04:51:14;101994.7021484375;;;6.96;86.41
44531;BME280;30240;47.418;0.700;2023-02-02T04:53:39;101991.87622070312;;;6.96;86.42
44531;BME280;30240;47.418;0.700;2023-02-02T04:56:04;101991.87622070312;;;6.96;86.42
44531;BME280;30240;47.418;0.700;2023-02-02T04:58:28;101996.01440429688;;;6.93;86.49
44531;BME280;30240;47.418;0.700;2023-02-02T05:00:54;101994.50073242188;;;6.96;86.51
44531;BME280;30240;47.418;0.700;2023-02-02T05:03:18;102000.70190429688;;;6.88;86.76
44531;BME280;30240;47.418;0.700;2023-02-02T05:05:44;102001.953125;;;6.89;86.69
44531;BME280;30240;47.418;0.700;2023-02-02T05:08:09;102001.953125;;;6.89;86.69
44531;BME280;30240;47.418;0.700;2023-02-02T05:10:34;102005.029296875;;;6.93;86.58
44531;BME280;30240;47.418;0.700;2023-02-02T05:12:59;102012.80517578125;;;6.95;86.56
44531;BME280;30240;47.418;0.700;2023-02-02T05:15:24;102008.8134765625;;;7.03;86.29
44531;BME280;30240;47.418;0.700;2023-02-02T05:17:49;102005.70068359375;;;6.96;86.49
44531;BME280;30240;47.418;0.700;2023-02-02T05:20:14;102005.70068359375;;;6.96;86.49
44531;BME280;30240;47.418;0.700;2023-02-02T05:22:39;102004.59594726562;;;6.88;86.82
44531;BME280;30240;47.418;0.700;2023-02-02T05:25:04;102014.48974609375;;;6.99;86.68
44531;BME280;30240;47.418;0.700;2023-02-02T05:27:28;102023.24829101562;;;6.96;86.5
44531;BME280;30240;47.418;0.700;2023-02-02T05:29:53;102021.83837890625;;;6.91;86.88
44531;BME280;30240;47.418;0.700;2023-02-02T05:32:18;102029.87670898438;;;6.79;87.01
44531;BME280;30240;47.418;0.700;2023-02-02T05:34:43;102029.87670898438;;;6.79;87.01
44531;BME280;30240;47.418;0.700;2023-02-02T05:37:08;102025.86669921875;;;6.78;87.14
44531;BME280;30240;47.418;0.700;2023-02-02T05:39:33;102020.3369140625;;;6.85;87.22
44531;BME280;30240;47.418;0.700;2023-02-02T05:41:59;102034.78393554688;;;6.87;87.23
44531;BME280;30240;47.418;0.700;2023-02-02T05:44:23;102038.47045898438;;;6.85;87.05
44531;BME280;30240;47.418;0.700;2023-02-02T05:46:48;102038.47045898438;;;6.85;87.05
44531;BME280;30240;47.418;0.700;2023-02-02T05:49:14;102036.99340820312;;;6.91;86.88
44531;BME280;30240;47.418;0.700;2023-02-02T05:51:41;102042.65747070312;;;7.0;86.52
44531;BME280;30240;47.418;0.700;2023-02-02T05:54:04;102037.24975585938;;;6.96;86.43
44531;BME280;30240;47.418;0.700;2023-02-02T05:56:29;102039.111328125;;;6.99;86.83
44531;BME280;30240;47.418;0.700;2023-02-02T05:58:53;102039.111328125;;;6.99;86.83
44531;BME280;30240;47.418;0.700;2023-02-02T06:01:19;102042.71850585938;;;6.82;87.01
44531;BME280;30240;47.418;0.700;2023-02-02T06:03:43;102043.310546875;;;6.78;87.35
44531;BME280;30240;47.418;0.700;2023-02-02T06:06:09;102044.64111328125;;;6.78;87.51
44531;BME280;30240;47.418;0.700;2023-02-02T06:08:34;102044.21997070312;;;6.84;87.74
44531;BME280;30240;47.418;0.700;2023-02-02T06:10:58;102044.21997070312;;;6.84;87.74
44531;BME280;30240;47.418;0.700;2023-02-02T06:13:24;102051.17797851562;;;6.81;87.57
44531;BME280;30240;47.418;0.700;2023-02-02T06:15:48;102046.85668945312;;;6.71;87.63
44531;BME280;30240;47.418;0.700;2023-02-02T06:18:14;102047.8271484375;;;6.7;87.99
44531;BME280;30240;47.418;0.700;2023-02-02T06:20:38;102048.99291992188;;;6.7;87.5
44531;BME280;30240;47.418;0.700;2023-02-02T06:23:04;102048.99291992188;;;6.7;87.5
44531;BME280;30240;47.418;0.700;2023-02-02T06:25:29;102051.8798828125;;;6.77;87.58
44531;BME280;30240;47.418;0.700;2023-02-02T06:27:54;102063.330078125;;;6.68;87.96
44531;BME280;30240;47.418;0.700;2023-02-02T06:30:19;102067.7734375;;;6.68;88.18
44531;BME280;30240;47.418;0.700;2023-02-02T06:32:44;102067.24853515625;;;6.58;88.52
44531;BME280;30240;47.418;0.700;2023-02-02T06:35:08;102067.24853515625;;;6.58;88.52
44531;BME280;30240;47.418;0.700;2023-02-02T06:37:33;102065.07568359375;;;6.53;88.7
44531;BME280;30240;47.418;0.700;2023-02-02T06:39:58;102066.796875;;;6.58;88.7
44531;BME280;30240;47.418;0.700;2023-02-02T06:42:23;102068.798828125;;;6.61;88.82
44531;BME280;30240;47.418;0.700;2023-02-02T06:44:48;102074.5849609375;;;6.65;88.43
44531;BME280;30240;47.418;0.700;2023-02-02T06:47:13;102074.5849609375;;;6.65;88.43
44531;BME280;30240;47.418;0.700;2023-02-02T06:49:38;102073.93188476562;;;6.6;88.7
44531;BME280;30240;47.418;0.700;2023-02-02T06:52:03;102071.39892578125;;;6.51;88.89
44531;BME280;30240;47.418;0.700;2023-02-02T06:54:28;102066.5283203125;;;6.4;89.18
44531;BME280;30240;47.418;0.700;2023-02-02T06:56:54;102069.921875;;;6.43;89.26
44531;BME280;30240;47.418;0.700;2023-02-02T06:59:18;102082.18994140625;;;6.37;89.51
44531;BME280;30240;47.418;0.700;2023-02-02T07:01:43;102082.18994140625;;;6.37;89.51
44531;BME280;30240;47.418;0.700;2023-02-02T07:04:08;102077.9052734375;;;6.36;89.73
44531;BME280;30240;47.418;0.700;2023-02-02T07:06:33;102079.20532226562;;;6.36;89.66
44531;BME280;30240;47.418;0.700;2023-02-02T07:08:59;102084.17358398438;;;6.36;89.49
44531;BME280;30240;47.418;0.700;2023-02-02T07:11:23;102093.65844726562;;;6.36;89.36
44531;BME280;30240;47.418;0.700;2023-02-02T07:13:48;102093.65844726562;;;6.36;89.36
44531;BME280;30240;47.418;0.700;2023-02-02T07:16:14;102086.0595703125;;;6.44;89.32
44531;BME280;30240;47.418;0.700;2023-02-02T07:18:39;102093.20068359375;;;6.34;89.17
44531;BME280;30240;47.418;0.700;2023-02-02T07:21:04;102092.578125;;;6.36;89.25
44531;BME280;30240;47.418;0.700;2023-02-02T07:23:29;102092.0654296875;;;6.36;89.24
44531;BME280;30240;47.418;0.700;2023-02-02T07:26:01;102092.0654296875;;;6.36;89.24
44531;BME280;30240;47.418;0.700;2023-02-02T07:28:18;102087.03002929688;;;6.37;89.22
44531;BME280;30240;47.418;0.700;2023-02-02T07:30:43;102084.375;;;6.38;88.91
44531;BME280;30240;47.418;0.700;2023-02-02T07:33:08;102096.142578125;;;6.43;88.83
44531;BME280;30240;47.418;0.700;2023-02-02T07:35:33;102095.0439453125;;;6.36;88.97
44531;BME280;30240;47.418;0.700;2023-02-02T07:37:59;102095.0439453125;;;6.36;88.97
44531;BME280;30240;47.418;0.700;2023-02-02T07:40:24;102102.36206054688;;;6.44;88.69
44531;BME280;30240;47.418;0.700;2023-02-02T07:42:48;102103.82080078125;;;6.41;88.24
44531;BME280;30240;47.418;0.700;2023-02-02T07:45:14;102100.048828125;;;6.46;88.04
44531;BME280;30240;47.418;0.700;2023-02-02T07:47:39;102097.7783203125;;;6.48;88.22
44531;BME280;30240;47.418;0.700;2023-02-02T07:50:04;102097.7783203125;;;6.48;88.22
44531;BME280;30240;47.418;0.700;2023-02-02T07:52:29;102088.76342773438;;;6.58;88.31
44531;BME280;30240;47.418;0.700;2023-02-02T07:54:54;102086.474609375;;;6.48;87.68
44531;BME280;30240;47.418;0.700;2023-02-02T07:57:18;102093.63403320312;;;6.53;88.02
44531;BME280;30240;47.418;0.700;2023-02-02T07:59:44;102097.265625;;;6.47;88.01
44531;BME280;30240;47.418;0.700;2023-02-02T08:02:09;102097.265625;;;6.47;88.01
44531;BME280;30240;47.418;0.700;2023-02-02T08:04:34;102097.17407226562;;;6.4;88.09
44531;BME280;30240;47.418;0.700;2023-02-02T08:06:59;102100.76293945312;;;6.51;87.87
44531;BME280;30240;47.418;0.700;2023-02-02T08:09:24;102101.220703125;;;6.57;87.81
44531;BME280;30240;47.418;0.700;2023-02-02T08:11:49;102091.6748046875;;;6.51;87.57
44531;BME280;30240;47.418;0.700;2023-02-02T08:14:14;102091.6748046875;;;6.51;87.57
44531;BME280;30240;47.418;0.700;2023-02-02T08:16:39;102091.455078125;;;6.63;87.32
44531;BME280;30240;47.418;0.700;2023-02-02T08:19:04;102094.95849609375;;;6.67;87.35
44531;BME280;30240;47.418;0.700;2023-02-02T08:21:31;102093.91479492188;;;6.7;87.03
44531;BME280;30240;47.418;0.700;2023-02-02T08:23:54;102102.87475585938;;;6.67;86.8
44531;BME280;30240;47.418;0.700;2023-02-02T08:26:20;102102.87475585938;;;6.67;86.8
44531;BME280;30240;47.418;0.700;2023-02-02T08:28:46;102103.7841796875;;;6.77;86.81
44531;BME280;30240;47.418;0.700;2023-02-02T08:31:11;102106.53076171875;;;6.81;86.64
44531;BME280;30240;47.418;0.700;2023-02-02T08:33:34;102103.46069335938;;;6.89;86.25
44531;BME280;30240;47.418;0.700;2023-02-02T08:35:59;102105.908203125;;;6.79;86.48
44531;BME280;30240;47.418;0.700;2023-02-02T08:38:24;102105.9814453125;;;7.0;86.4
44531;BME280;30240;47.418;0.700;2023-02-02T08:40:49;102105.9814453125;;;7.0;86.4
44531;BME280;30240;47.418;0.700;2023-02-02T08:43:14;102106.45141601562;;;7.0;86.55
44531;BME280;30240;47.418;0.700;2023-02-02T08:45:41;102106.30493164062;;;6.79;86.78
44531;BME280;30240;47.418;0.700;2023-02-02T08:48:04;102102.5634765625;;;6.87;86.46
44531;BME280;30240;47.418;0.700;2023-02-02T08:50:29;102108.56323242188;;;6.75;86.49
44531;BME280;30240;47.418;0.700;2023-02-02T08:52:55;102108.56323242188;;;6.75;86.49
44531;BME280;30240;47.418;0.700;2023-02-02T08:55:18;102101.08032226562;;;6.78;86.87
44531;BME280;30240;47.418;0.700;2023-02-02T08:57:44;102106.7626953125;;;6.81;86.94
44531;BME280;30240;47.418;0.700;2023-02-02T09:00:09;102097.3388671875;;;7.02;86.19
44531;BME280;30240;47.418;0.700;2023-02-02T09:02:34;102095.67260742188;;;7.02;85.54
44531;BME280;30240;47.418;0.700;2023-02-02T09:04:59;102095.67260742188;;;7.02;85.54
44531;BME280;30240;47.418;0.700;2023-02-02T09:07:24;102097.56469726562;;;7.12;85.0
44531;BME280;30240;47.418;0.700;2023-02-02T09:09:49;102095.48950195312;;;7.38;84.85
44531;BME280;30240;47.418;0.700;2023-02-02T09:12:14;102094.23217773438;;;7.28;84.33
44531;BME280;30240;47.418;0.700;2023-02-02T09:14:39;102099.9267578125;;;7.4;84.24
44531;BME280;30240;47.418;0.700;2023-02-02T09:17:04;102099.9267578125;;;7.4;84.24
44531;BME280;30240;47.418;0.700;2023-02-02T09:19:29;102096.7041015625;;;7.32;84.3
44531;BME280;30240;47.418;0.700;2023-02-02T09:21:54;102098.16284179688;;;7.37;83.54
44531;BME280;30240;47.418;0.700;2023-02-02T09:24:19;102108.61206054688;;;7.4;83.5
44531;BME280;30240;47.418;0.700;2023-02-02T09:26:44;102116.748046875;;;7.37;83.73
44531;BME280;30240;47.418;0.700;2023-02-02T09:29:11;102116.748046875;;;7.37;83.73
44531;BME280;30240;47.418;0.700;2023-02-02T09:31:35;102126.15356445312;;;7.32;83.0
44531;BME280;30240;47.418;0.700;2023-02-02T09:33:59;102124.31030273438;;;7.54;83.06
44531;BME280;30240;47.418;0.700;2023-02-02T09:36:23;102125.14038085938;;;7.48;82.25
44531;BME280;30240;47.418;0.700;2023-02-02T09:38:49;102121.29516601562;;;7.56;82.18
44531;BME280;30240;47.418;0.700;2023-02-02T09:41:58;102121.29516601562;;;7.56;82.18
44531;BME280;30240;47.418;0.700;2023-02-02T09:42:07;102121.29516601562;;;7.56;82.18
44531;BME280;30240;47.418;0.700;2023-02-02T09:42:18;102121.29516601562;;;7.56;82.18
44531;BME280;30240;47.418;0.700;2023-02-02T09:43:53;102120.59326171875;;;7.62;81.86
44531;BME280;30240;47.418;0.700;2023-02-02T09:46:09;102124.46899414062;;;7.82;81.71
44531;BME280;30240;47.418;0.700;2023-02-02T09:46:15;102124.46899414062;;;7.82;81.71
44531;BME280;30240;47.418;0.700;2023-02-02T09:48:32;102131.47583007812;;;7.8;80.99
44531;BME280;30240;47.418;0.700;2023-02-02T09:50:56;102126.81274414062;;;7.76;81.09
44531;BME280;30240;47.418;0.700;2023-02-02T09:53:22;102126.81274414062;;;7.76;81.09
44531;BME280;30240;47.418;0.700;2023-02-02T09:55:45;102126.98364257812;;;7.71;81.21
44531;BME280;30240;47.418;0.700;2023-02-02T09:58:12;102132.40356445312;;;7.83;81.15
44531;BME280;30240;47.418;0.700;2023-02-02T10:00:37;102129.20532226562;;;8.01;80.79
44531;BME280;30240;47.418;0.700;2023-02-02T10:03:01;102138.16528320312;;;7.98;79.76
44531;BME280;30240;47.418;0.700;2023-02-02T10:05:27;102136.23657226562;;;7.96;80.36
44531;BME280;30240;47.418;0.700;2023-02-02T10:07:50;102136.23657226562;;;7.96;80.36
44531;BME280;30240;47.418;0.700;2023-02-02T10:10:17;102136.90795898438;;;7.98;79.99
44531;BME280;30240;47.418;0.700;2023-02-02T10:12:41;102148.73657226562;;;8.32;79.61
44531;BME280;30240;47.418;0.700;2023-02-02T10:15:13;102153.92456054688;;;8.2;79.75
44531;BME280;30240;47.418;0.700;2023-02-02T10:17:36;102160.693359375;;;7.98;79.6
44531;BME280;30240;47.418;0.700;2023-02-02T10:19:56;102160.693359375;;;7.98;79.6
44531;BME280;30240;47.418;0.700;2023-02-02T10:20:02;102160.693359375;;;7.98;79.6
44531;BME280;30240;47.418;0.700;2023-02-02T10:22:22;102160.986328125;;;8.56;78.95
44531;BME280;30240;47.418;0.700;2023-02-02T10:24:44;102158.57543945312;;;8.46;78.6
44531;BME280;30240;47.418;0.700;2023-02-02T10:27:13;102163.56201171875;;;8.2;78.5
44531;BME280;30240;47.418;0.700;2023-02-02T10:29:40;102163.18969726562;;;8.35;78.69
44531;BME280;30240;47.418;0.700;2023-02-02T10:32:14;102163.18969726562;;;8.35;78.69
44531;BME280;30240;47.418;0.700;2023-02-02T10:34:27;102173.10791015625;;;8.44;78.73
44531;BME280;30240;47.418;0.700;2023-02-02T10:36:55;102178.04565429688;;;8.44;78.75
44531;BME280;30240;47.418;0.700;2023-02-02T10:37:01;102178.04565429688;;;8.44;78.75
44531;BME280;30240;47.418;0.700;2023-02-02T10:39:20;102184.00268554688;;;8.6;78.47
44531;BME280;30240;47.418;0.700;2023-02-02T10:41:42;102188.22631835938;;;8.5;78.28
44531;BME280;30240;47.418;0.700;2023-02-02T10:44:12;102188.22631835938;;;8.5;78.28
44531;BME280;30240;47.418;0.700;2023-02-02T10:46:30;102186.279296875;;;8.48;78.54
44531;BME280;30240;47.418;0.700;2023-02-02T10:48:59;102187.39013671875;;;8.83;78.28
44531;BME280;30240;47.418;0.700;2023-02-02T10:49:10;102187.39013671875;;;8.83;78.28
44531;BME280;30240;47.418;0.700;2023-02-02T10:51:22;102192.32788085938;;;8.98;77.17
44531;BME280;30240;47.418;0.700;2023-02-02T10:53:48;102193.78051757812;;;8.7;77.59
44531;BME280;30240;47.418;0.700;2023-02-02T10:56:10;102193.78051757812;;;8.7;77.59
44531;BME280;30240;47.418;0.700;2023-02-02T10:58:37;102191.15600585938;;;8.69;77.27
44531;BME280;30240;47.418;0.700;2023-02-02T11:00:59;102179.26635742188;;;8.88;77.41